Flight Track Log - Related Links

Times and Time Zones

All times are in EDT time to prevent confusion due to time zone crossing. See the N1926A flight status page for this flight to view local times or setup timezone preferences in your user account.

Time Position Orientation Groundspeed Altitude Reporting Facility
EDT Latitude Longitude Course Direction KTS MPH feet Rate Location/Type
Sat 02:56:58 PM 34.7261 -86.7058 97° East 163 188 6,800  Level Memphis Center
Sat 02:57:58 PM 34.7203 -86.6456 97° East 180 207 9,300 2,350 Climbing Memphis Center
Sat 02:58:58 PM 34.6775 -86.6169 151° Southeast 149 171 11,500 1,850 Climbing Memphis Center
Sat 02:59:58 PM 34.6267 -86.5889 156° South 163 188 13,000 700 Climbing Memphis Center
Sat 03:00:58 PM 34.5569 -86.5567 159° South 222 255 12,900 -50 Descending Memphis Center
Sat 03:01:58 PM 34.4811 -86.5325 165° South 266 306 12,900  Level Memphis Center
Sat 03:02:45 PM 34.4228 -86.5092 162° South 277 319 12,900  Level Atlanta Center
Sat 03:03:45 PM 34.3503 -86.4844 164° South 277 319 12,900  Level Atlanta Center
Sat 03:04:45 PM 34.2736 -86.4569 163° South 277 319 12,900  Level Atlanta Center
Sat 03:05:45 PM 34.2008 -86.4322 164° South 277 319 12,900  Level Atlanta Center
Sat 03:06:45 PM 34.1306 -86.4103 166° South 277 319 12,900 50 Level Atlanta Center
Sat 03:07:45 PM 34.0558 -86.3856 165° South 277 319 13,000 50 Climbing Atlanta Center
Sat 03:08:45 PM 33.9811 -86.3636 166° South 277 319 13,000  Level Atlanta Center
Sat 03:09:45 PM 33.9064 -86.3389 165° South 277 319 13,000 50 Level Atlanta Center
Sat 03:10:45 PM 33.8381 -86.3147 164° South 272 313 13,100 50 Climbing Atlanta Center
Sat 03:11:45 PM 33.7633 -86.2878 163° South 272 313 13,100 -50 Level Atlanta Center
Sat 03:12:45 PM 33.6886 -86.2683 168° South 278 320 13,000 -50 Descending Atlanta Center
Sat 03:13:45 PM 33.6161 -86.2389 161° South 278 320 13,000  Level Atlanta Center
Sat 03:14:45 PM 33.5494 -86.2172 165° South 278 320 13,000 50 Level Atlanta Center
Sat 03:15:45 PM 33.4769 -86.1981 168° South 278 320 13,100 50 Climbing Atlanta Center
Sat 03:16:45 PM 33.4022 -86.1739 165° South 278 320 13,100  Level Atlanta Center
Sat 03:17:45 PM 33.3294 -86.1522 166° South 278 320 13,100  Level Atlanta Center
Sat 03:18:45 PM 33.2547 -86.1281 165° South 278 320 13,100 -200 Level Atlanta Center
Sat 03:19:45 PM 33.1800 -86.0989 162° South 278 320 12,700 -950 Descending Atlanta Center
Sat 03:20:45 PM 33.1014 -86.0697 163° South 283 326 11,200 -1,300 Descending Atlanta Center
Sat 03:21:45 PM 33.0203 -86.0406 163° South 294 338 10,100 -1,000 Descending Atlanta Center
Sat 03:22:45 PM 32.9436 -86.0067 160° South 300 345 9,200 -900 Descending Atlanta Center
Sat 03:31:00 PM 32.8623 -85.9820 166° South  Level FlightAware Approximate
Sat 03:38:00 PM 32.5149 -85.8762 North  Level Estimated
Sat 03:39:00 PM 32.5149 -85.8762 North  Level Estimated

Login

Don't have an account? Register now (free) for customized features, flight alerts, and more!